createdAt,value
2022-08-09T00:00:01.027Z,14.20
2022-08-09T00:02:49.259Z,13.03
2022-08-09T00:06:16.348Z,13.60
2022-08-09T00:08:32.669Z,14.05
2022-08-09T00:11:24.449Z,14.16
2022-08-09T00:13:58.490Z,14.30
2022-08-09T00:16:36.630Z,14.06
2022-08-09T00:19:10.328Z,12.94
2022-08-09T00:21:43.198Z,14.57
2022-08-09T00:24:27.838Z,14.50
2022-08-09T00:27:06.461Z,14.42
2022-08-09T00:29:39.800Z,13.68
2022-08-09T00:32:38.733Z,12.67
2022-08-09T00:35:15.982Z,13.06
2022-08-09T00:37:49.563Z,12.81
2022-08-09T00:40:19.788Z,13.43
2022-08-09T00:44:10.392Z,14.04
2022-08-09T00:45:39.325Z,13.60
2022-08-09T00:48:20.327Z,12.28
2022-08-09T01:00:02.864Z,14.01
2022-08-09T01:04:45.762Z,13.14
2022-08-09T01:08:00.221Z,13.20
2022-08-09T01:18:30.139Z,13.51
2022-08-09T01:21:15.003Z,13.05
2022-08-09T01:24:01.930Z,13.72
2022-08-09T01:26:53.458Z,13.69
2022-08-09T01:29:41.191Z,13.44
2022-08-09T01:32:31.031Z,12.52
2022-08-09T01:35:07.141Z,13.57
2022-08-09T01:38:08.174Z,12.80
2022-08-09T01:40:43.571Z,12.60
2022-08-09T01:43:13.394Z,12.81
2022-08-09T01:45:48.798Z,12.30
2022-08-09T01:48:19.186Z,13.07
2022-08-09T01:50:55.461Z,12.93
2022-08-09T01:53:29.171Z,12.31
2022-08-09T01:56:12.137Z,13.02
2022-08-09T01:58:49.036Z,13.34
2022-08-09T02:01:20.016Z,13.33
2022-08-09T02:03:59.478Z,12.60
2022-08-09T02:06:42.686Z,13.26
2022-08-09T02:09:16.464Z,13.23
2022-08-09T02:11:46.672Z,11.81
2022-08-09T02:14:26.259Z,12.36
2022-08-09T02:17:00.011Z,12.21
2022-08-09T02:19:44.097Z,13.09
2022-08-09T02:22:27.374Z,11.70
2022-08-09T02:25:09.381Z,12.80
2022-08-09T02:27:57.928Z,13.01
2022-08-09T02:30:35.482Z,12.08
2022-08-09T02:33:08.036Z,12.11
2022-08-09T02:36:02.766Z,12.46
2022-08-09T02:38:35.584Z,12.65
2022-08-09T02:41:10.556Z,12.06
2022-08-09T02:43:54.683Z,12.35
2022-08-09T02:46:29.087Z,12.77
2022-08-09T02:49:00.357Z,11.89
2022-08-09T02:51:37.139Z,11.85
2022-08-09T02:54:10.401Z,11.94
2022-08-09T02:56:43.808Z,12.41
2022-08-09T02:59:26.147Z,12.66
2022-08-09T03:02:17.052Z,12.63
2022-08-09T03:04:50.840Z,12.60
2022-08-09T03:07:19.964Z,11.51
2022-08-09T03:09:54.360Z,11.74
2022-08-09T03:12:27.110Z,11.50
2022-08-09T03:14:56.631Z,11.75
2022-08-09T03:17:27.980Z,12.17
2022-08-09T03:20:11.487Z,11.66
2022-08-09T03:22:43.664Z,11.69
2022-08-09T03:25:25.849Z,11.45
2022-08-09T03:28:04.883Z,12.37
2022-08-09T03:30:43.406Z,11.47
2022-08-09T03:33:19.261Z,12.32
2022-08-09T03:36:15.991Z,11.59
2022-08-09T03:38:42.634Z,11.58
2022-08-09T03:41:16.662Z,12.24
2022-08-09T03:44:07.962Z,11.90
2022-08-09T03:46:36.171Z,10.83
2022-08-09T03:49:09.671Z,12.18
2022-08-09T03:51:58.311Z,12.15
2022-08-09T03:54:32.426Z,12.13
2022-08-09T03:57:18.163Z,12.11
2022-08-09T03:59:53.393Z,12.09
2022-08-09T04:02:26.568Z,12.08
2022-08-09T04:05:06.530Z,11.35
2022-08-09T04:07:52.982Z,11.33
2022-08-09T04:10:29.537Z,11.18
2022-08-09T04:13:01.148Z,10.55
2022-08-09T04:16:18.265Z,10.74
2022-08-09T04:18:19.446Z,11.28
2022-08-09T04:20:52.106Z,12.02
2022-08-09T04:23:23.333Z,11.68
2022-08-09T04:25:53.490Z,11.37
2022-08-09T04:28:34.053Z,12.05
2022-08-09T04:31:10.115Z,11.41
2022-08-09T04:33:47.475Z,10.96
2022-08-09T04:36:40.376Z,11.20
2022-08-09T04:39:18.482Z,10.44
2022-08-09T04:41:55.507Z,11.81
2022-08-09T04:44:28.775Z,12.16
2022-08-09T04:47:04.637Z,11.36
2022-08-09T04:49:53.605Z,12.24
2022-08-09T04:52:27.683Z,10.97
2022-08-09T04:54:56.974Z,12.56
2022-08-09T04:57:25.400Z,13.27
2022-08-09T04:59:58.366Z,13.94
2022-08-09T05:02:29.530Z,14.85
2022-08-09T05:05:09.575Z,15.48
2022-08-09T05:07:42.357Z,15.11
2022-08-09T05:10:29.417Z,15.73
2022-08-09T05:19:57.059Z,16.74
2022-08-09T05:23:53.742Z,16.83
2022-08-09T05:25:51.385Z,17.57
2022-08-09T05:28:50.321Z,18.63
2022-08-09T05:31:42.759Z,18.30
2022-08-09T05:34:16.619Z,20.17
2022-08-09T05:36:56.447Z,19.63
2022-08-09T05:39:30.251Z,20.19
2022-08-09T05:42:31.461Z,20.91
2022-08-09T05:48:13.872Z,22.84
2022-08-09T05:51:11.995Z,22.72
2022-08-09T05:53:56.917Z,23.89
2022-08-09T05:56:27.846Z,24.86
2022-08-09T05:58:59.216Z,25.47
2022-08-09T06:01:34.195Z,26.05
2022-08-09T06:04:12.129Z,26.68
2022-08-09T06:06:46.825Z,27.22
2022-08-09T06:09:40.879Z,27.74
2022-08-09T06:13:02.906Z,27.07
2022-08-09T06:16:37.676Z,29.07
2022-08-09T06:19:47.920Z,28.75
2022-08-09T06:22:22.488Z,29.47
2022-08-09T06:24:57.903Z,30.13
2022-08-09T06:27:26.265Z,31.72
2022-08-09T06:30:14.143Z,32.10
2022-08-09T06:33:00.076Z,32.59
2022-08-09T06:35:55.715Z,33.14
2022-08-09T06:38:31.913Z,33.72
2022-08-09T06:41:09.385Z,34.23
2022-08-09T06:43:47.409Z,34.54
2022-08-09T06:46:40.347Z,35.16
2022-08-09T06:49:05.069Z,35.57
2022-08-09T06:51:33.654Z,36.02
2022-08-09T06:54:09.188Z,36.48
2022-08-09T06:56:40.262Z,36.81
2022-08-09T07:00:55.411Z,37.45
2022-08-09T07:02:04.679Z,38.20
2022-08-09T07:04:34.147Z,38.68
2022-08-09T07:07:04.896Z,39.10
2022-08-09T07:09:55.277Z,39.48
2022-08-09T07:12:20.876Z,39.91
2022-08-09T07:15:53.813Z,40.20
2022-08-09T07:17:56.463Z,40.34
2022-08-09T07:20:31.792Z,40.95
2022-08-09T07:22:59.611Z,41.37
2022-08-09T07:25:27.915Z,41.70
2022-08-09T07:27:56.864Z,42.01
2022-08-09T07:30:26.439Z,42.29
2022-08-09T07:33:00.631Z,42.67
2022-08-09T07:35:28.835Z,43.11
2022-08-09T07:38:09.180Z,43.59
2022-08-09T07:41:00.439Z,43.77
2022-08-09T07:43:29.006Z,44.18
2022-08-09T07:45:56.943Z,44.66
2022-08-09T07:48:31.601Z,45.06
2022-08-09T07:51:09.620Z,45.30
2022-08-09T07:54:05.671Z,45.62
2022-08-09T07:56:37.061Z,46.03
2022-08-09T07:59:16.014Z,46.34
2022-08-09T08:01:55.626Z,46.86
2022-08-09T08:04:31.115Z,47.21
2022-08-09T08:07:15.371Z,47.46
2022-08-09T08:09:55.076Z,47.63
2022-08-09T08:12:43.718Z,47.88
2022-08-09T08:15:14.212Z,47.86
2022-08-09T08:17:52.924Z,48.47
2022-08-09T08:20:29.445Z,48.71
2022-08-09T08:23:06.940Z,48.95
2022-08-09T08:25:48.432Z,49.23
2022-08-09T08:28:31.953Z,49.35
2022-08-09T08:31:06.134Z,49.71
2022-08-09T08:33:54.086Z,50.06
2022-08-09T08:36:28.996Z,50.38
2022-08-09T08:38:57.328Z,50.59
2022-08-09T08:41:41.791Z,50.80
2022-08-09T08:44:15.446Z,51.00
2022-08-09T08:47:02.921Z,51.07
2022-08-09T08:49:48.686Z,51.20
2022-08-09T08:55:07.266Z,51.77
2022-08-09T08:57:37.667Z,51.97
2022-08-09T09:00:20.893Z,52.22
2022-08-09T09:03:08.823Z,52.48
2022-08-09T09:05:58.397Z,52.45
2022-08-09T09:08:32.267Z,52.28
2022-08-09T09:11:08.361Z,52.34
2022-08-09T09:13:55.587Z,52.37
2022-08-09T09:16:30.318Z,52.50
2022-08-09T09:22:07.877Z,53.28
2022-08-09T09:24:43.213Z,53.50
2022-08-09T09:28:04.141Z,53.58
2022-08-09T09:30:26.167Z,53.74
2022-08-09T09:33:16.496Z,53.86
2022-08-09T09:36:02.884Z,54.17
2022-08-09T09:38:46.458Z,54.32
2022-08-09T09:41:32.931Z,54.43
2022-08-09T09:44:27.737Z,54.50
2022-08-09T09:47:08.036Z,54.72
2022-08-09T09:50:07.219Z,54.91
2022-08-09T09:52:52.243Z,54.90
2022-08-09T09:55:23.828Z,55.03
2022-08-09T09:58:16.302Z,55.24
2022-08-09T10:00:52.784Z,55.00
2022-08-09T10:03:44.655Z,54.71
2022-08-09T10:06:13.564Z,54.68
2022-08-09T10:08:54.582Z,54.85
2022-08-09T10:11:53.943Z,55.14
2022-08-09T10:14:26.082Z,55.14
2022-08-09T10:17:17.250Z,55.15
2022-08-09T10:19:53.132Z,55.36
2022-08-09T10:22:33.489Z,55.34
2022-08-09T10:25:10.843Z,55.11
2022-08-09T10:27:56.169Z,55.22
2022-08-09T10:34:04.848Z,55.07
2022-08-09T10:36:12.235Z,55.74
2022-08-09T10:38:56.893Z,55.63
2022-08-09T10:41:28.456Z,55.43
2022-08-09T10:44:01.350Z,55.19
2022-08-09T10:47:00.573Z,55.88
2022-08-09T10:49:50.458Z,56.01
2022-08-09T10:52:50.354Z,56.11
2022-08-09T10:55:23.740Z,56.22
2022-08-09T10:57:55.469Z,56.02
2022-08-09T11:00:41.663Z,55.77
2022-08-09T11:03:50.214Z,55.66
2022-08-09T11:06:19.514Z,55.79
2022-08-09T11:08:51.129Z,55.71
2022-08-09T11:11:23.269Z,55.71
2022-08-09T11:14:28.276Z,55.68
2022-08-09T11:16:59.753Z,55.48
2022-08-09T11:20:10.754Z,55.15
2022-08-09T11:23:02.885Z,54.59
2022-08-09T11:25:47.823Z,54.55
2022-08-09T11:28:56.030Z,54.01
2022-08-09T11:31:43.430Z,53.81
2022-08-09T11:34:25.514Z,52.84
2022-08-09T11:36:55.461Z,51.21
2022-08-09T11:39:25.101Z,49.34
2022-08-09T11:42:09.439Z,47.18
2022-08-09T11:44:48.151Z,45.04
2022-08-09T11:47:16.563Z,43.28
2022-08-09T11:50:55.278Z,42.08
2022-08-09T11:54:00.766Z,40.68
2022-08-09T11:56:41.690Z,39.63
2022-08-09T11:59:24.673Z,38.38
2022-08-09T12:02:17.229Z,38.28
2022-08-09T12:04:47.014Z,37.65
2022-08-09T12:07:15.799Z,37.19
2022-08-09T12:09:50.848Z,37.05
2022-08-09T12:12:28.862Z,36.69
2022-08-09T12:15:07.255Z,36.42
2022-08-09T12:17:44.397Z,35.89
2022-08-09T12:20:21.906Z,35.42
2022-08-09T12:22:53.116Z,34.72
2022-08-09T12:25:35.874Z,35.25
2022-08-09T12:29:10.556Z,34.68
2022-08-09T12:31:00.864Z,34.65
2022-08-09T12:33:51.019Z,34.01
2022-08-09T12:36:32.402Z,33.67
2022-08-09T12:39:03.601Z,33.07
2022-08-09T12:41:39.517Z,33.94
2022-08-09T12:44:10.105Z,33.05
2022-08-09T12:46:49.356Z,33.82
2022-08-09T12:53:38.828Z,32.43
2022-08-09T12:56:43.135Z,32.34
2022-08-09T12:59:24.653Z,33.14
2022-08-09T13:02:30.034Z,33.12
2022-08-09T13:05:05.184Z,31.83
2022-08-09T13:11:02.387Z,32.42
2022-08-09T13:18:05.520Z,31.21
2022-08-09T13:28:35.792Z,32.42
2022-08-09T13:36:24.078Z,30.63
2022-08-09T13:44:52.188Z,30.90
2022-08-09T13:54:36.655Z,31.21
2022-08-09T13:57:58.116Z,32.15
2022-08-09T14:08:46.007Z,32.70
2022-08-09T14:12:24.403Z,32.12
2022-08-09T14:48:57.539Z,31.30
2022-08-09T14:52:32.058Z,29.66
2022-08-09T15:18:24.166Z,29.69
2022-08-09T15:21:55.402Z,30.72
2022-08-09T15:24:12.483Z,29.81
2022-08-09T15:28:00.922Z,30.10
2022-08-09T15:30:57.554Z,29.81
2022-08-09T15:34:19.564Z,31.18
2022-08-09T15:36:52.443Z,30.24
2022-08-09T15:49:30.388Z,30.44
2022-08-09T15:52:38.066Z,30.76
2022-08-09T16:16:10.398Z,30.26
2022-08-09T16:18:45.181Z,30.61
2022-08-09T16:33:04.150Z,30.91
2022-08-09T16:35:57.417Z,30.51
2022-08-09T16:45:03.730Z,29.87
2022-08-09T16:48:50.836Z,30.37
2022-08-09T16:50:59.766Z,29.52
2022-08-09T16:54:25.798Z,30.27
2022-08-09T16:56:52.720Z,28.74
2022-08-09T16:59:38.030Z,30.10
2022-08-09T17:02:23.260Z,28.72
2022-08-09T17:05:09.314Z,29.03
2022-08-09T17:08:46.352Z,28.33
2022-08-09T17:10:42.765Z,28.88
2022-08-09T17:13:18.791Z,28.54
2022-08-09T17:16:00.224Z,28.11
2022-08-09T17:18:33.666Z,29.71
2022-08-09T17:21:08.285Z,29.62
2022-08-09T17:24:27.654Z,29.53
2022-08-09T17:26:38.258Z,29.42
2022-08-09T17:29:20.057Z,29.31
2022-08-09T17:32:34.850Z,29.17
2022-08-09T17:35:18.652Z,29.04
2022-08-09T17:38:34.038Z,27.41
2022-08-09T17:41:12.164Z,28.20
2022-08-09T17:43:46.923Z,28.70
2022-08-09T17:46:33.960Z,27.84
2022-08-09T17:49:08.795Z,27.60
2022-08-09T17:51:41.914Z,28.01
2022-08-09T17:54:29.665Z,28.29
2022-08-09T17:57:04.398Z,27.81
2022-08-09T17:59:42.837Z,26.23
2022-08-09T18:02:25.676Z,26.90
2022-08-09T18:05:17.445Z,26.70
2022-08-09T18:08:54.347Z,27.83
2022-08-09T18:13:39.445Z,27.70
2022-08-09T20:17:18.330Z,21.64
2022-08-09T20:19:54.382Z,21.40
2022-08-09T20:22:32.101Z,21.03
2022-08-09T20:25:00.878Z,20.65
2022-08-09T20:27:30.857Z,20.58
2022-08-09T20:30:02.659Z,20.19
2022-08-09T20:32:34.168Z,21.17
2022-08-09T20:35:02.841Z,20.84
2022-08-09T20:38:18.574Z,21.03
2022-08-09T20:40:27.642Z,20.25
2022-08-09T20:43:12.026Z,20.04
2022-08-09T20:45:56.714Z,19.92
2022-08-09T20:48:30.813Z,20.34
2022-08-09T20:50:59.961Z,20.62
2022-08-09T20:53:37.804Z,20.53
2022-08-09T20:56:19.844Z,20.29
2022-08-09T20:58:58.040Z,20.41
2022-08-09T21:01:34.379Z,20.33
2022-08-09T21:05:54.280Z,20.11
2022-08-09T21:07:11.918Z,20.21
2022-08-09T21:09:45.689Z,19.33
2022-08-09T21:15:13.566Z,20.02
2022-08-09T21:18:23.758Z,19.97
2022-08-09T21:20:31.593Z,19.94
2022-08-09T21:23:00.484Z,19.20
2022-08-09T21:25:55.891Z,18.72
2022-08-09T21:28:34.771Z,19.87
2022-08-09T21:31:17.195Z,19.67
2022-08-09T21:33:50.404Z,18.82
2022-08-09T21:36:23.066Z,19.24
2022-08-09T21:38:56.722Z,19.07
2022-08-09T21:41:59.923Z,19.11
2022-08-09T21:44:15.219Z,18.99
2022-08-09T21:47:01.618Z,18.80
2022-08-09T21:49:40.329Z,19.43
2022-08-09T21:52:18.126Z,19.61
2022-08-09T21:54:49.583Z,19.55
2022-08-09T21:57:39.385Z,18.91
2022-08-09T22:00:25.822Z,19.19
2022-08-09T22:02:59.087Z,19.30
2022-08-09T22:05:36.121Z,18.46
2022-08-09T22:08:15.297Z,18.73
2022-08-09T22:11:49.238Z,19.04
2022-08-09T22:13:35.655Z,18.63
2022-08-09T22:16:07.874Z,17.92
2022-08-09T22:18:37.415Z,18.58
2022-08-09T22:21:09.563Z,17.67
2022-08-09T22:23:58.622Z,17.96
2022-08-09T22:26:35.416Z,18.60
2022-08-09T22:29:10.226Z,18.53
2022-08-09T22:31:44.133Z,18.47
2022-08-09T22:34:25.786Z,18.42
2022-08-09T22:36:54.575Z,18.38
2022-08-09T22:39:56.386Z,17.40
2022-08-09T22:42:21.308Z,18.27
2022-08-09T22:45:05.141Z,18.14
2022-08-09T22:48:10.861Z,16.88
2022-08-09T22:50:29.702Z,17.19
2022-08-09T22:52:58.752Z,17.65
2022-08-09T22:55:39.619Z,17.83
2022-08-09T22:58:31.011Z,17.96
2022-08-09T23:01:01.232Z,17.92
2022-08-09T23:04:02.895Z,17.36
2022-08-09T23:06:34.697Z,17.63
2022-08-09T23:09:06.120Z,17.46
2022-08-09T23:11:36.021Z,17.73
2022-08-09T23:14:10.231Z,17.67
2022-08-09T23:16:45.254Z,17.02
2022-08-09T23:19:14.226Z,16.65
2022-08-09T23:21:42.896Z,16.71
2022-08-09T23:24:11.301Z,16.59
2022-08-09T23:26:40.918Z,16.65
2022-08-09T23:29:11.403Z,17.40
2022-08-09T23:31:39.622Z,16.83
2022-08-09T23:34:07.731Z,16.62
2022-08-09T23:36:36.975Z,16.59
2022-08-09T23:39:08.477Z,16.42
2022-08-09T23:41:36.844Z,17.18
2022-08-09T23:44:06.749Z,16.30
2022-08-09T23:46:35.090Z,16.27
2022-08-09T23:49:03.299Z,17.06
2022-08-09T23:51:31.515Z,16.28
2022-08-09T23:54:01.866Z,16.35
2022-08-09T23:56:53.058Z,16.32
2022-08-09T23:59:21.732Z,16.01
